createdAt,value
2023-11-06T00:00:47.413Z,75.1
2023-11-06T00:05:47.538Z,75.7
2023-11-06T00:16:40.860Z,75.9
2023-11-06T00:21:40.889Z,75.3
2023-11-06T00:26:47.683Z,75.4
2023-11-06T00:32:40.721Z,75.2
2023-11-06T00:37:42.073Z,75.8
2023-11-06T00:42:47.437Z,75
2023-11-06T00:48:40.932Z,75.4
2023-11-06T00:53:47.320Z,76
2023-11-06T00:59:40.919Z,75.2
2023-11-06T01:04:47.567Z,75.2
2023-11-06T01:09:47.491Z,75.4
2023-11-06T01:15:40.871Z,74.8
2023-11-06T01:20:40.906Z,75.3
2023-11-06T01:25:47.825Z,75.2
2023-11-06T01:30:47.713Z,74.6
2023-11-06T01:36:40.879Z,75
2023-11-06T01:41:41.950Z,75
2023-11-06T01:46:47.503Z,75.1
2023-11-06T01:52:40.860Z,74.9
2023-11-06T01:57:40.921Z,74.8
2023-11-06T02:02:41.018Z,74.1
2023-11-06T02:07:47.628Z,73.7
2023-11-06T02:13:40.871Z,73.5
2023-11-06T02:18:47.785Z,73.4
2023-11-06T02:24:40.858Z,73.6
2023-11-06T02:29:47.402Z,73
2023-11-06T02:35:40.894Z,73.1
2023-11-06T02:40:47.233Z,74.2
2023-11-06T02:45:53.014Z,75.5
2023-11-06T02:51:40.848Z,75.7
2023-11-06T02:56:40.872Z,75.5
2023-11-06T03:01:47.510Z,74.6
2023-11-06T03:06:47.297Z,74.5
2023-11-06T03:11:47.560Z,74
2023-11-06T03:17:40.701Z,74.2
2023-11-06T03:22:40.855Z,73.8
2023-11-06T03:27:40.869Z,74.5
2023-11-06T03:32:40.881Z,75.1
2023-11-06T03:37:47.393Z,74.8
2023-11-06T03:42:47.485Z,75.1
2023-11-06T03:48:41.040Z,74.6
2023-11-06T03:53:47.425Z,74
2023-11-06T03:58:47.446Z,74.5
2023-11-06T04:03:47.496Z,74.7
2023-11-06T04:09:40.902Z,74.6
2023-11-06T04:14:47.410Z,74.4
2023-11-06T04:19:47.443Z,74.9
2023-11-06T04:25:40.622Z,75.5
2023-11-06T04:30:40.682Z,75.7
2023-11-06T04:35:47.446Z,74.4
2023-11-06T04:41:40.652Z,74.5
2023-11-06T04:46:40.646Z,74.2
2023-11-06T04:51:40.665Z,74.9
2023-11-06T04:56:40.787Z,74.2
2023-11-06T05:01:47.732Z,74.3
2023-11-06T05:07:40.672Z,74.5
2023-11-06T05:12:40.721Z,73.8
2023-11-06T05:17:47.411Z,74.3
2023-11-06T05:22:47.313Z,74.4
2023-11-06T05:27:47.438Z,73.5
2023-11-06T05:33:40.755Z,73.6
2023-11-06T05:38:40.679Z,74.9
2023-11-06T05:43:40.790Z,74.1
2023-11-06T05:48:47.473Z,74
2023-11-06T05:53:47.476Z,74.3
2023-11-06T05:59:40.836Z,74.8
2023-11-06T06:04:40.878Z,75.3
2023-11-06T06:09:49.665Z,74.9
2023-11-06T06:15:40.840Z,74.7
2023-11-06T06:20:47.401Z,73.8
2023-11-06T06:25:47.793Z,74.1
2023-11-06T06:31:40.881Z,73.3
2023-11-06T06:36:47.285Z,75
2023-11-06T06:42:40.902Z,74.6
2023-11-06T06:47:47.510Z,75.6
2023-11-06T06:52:47.470Z,75
2023-11-06T06:58:47.236Z,75.7
2023-11-06T07:03:47.602Z,75.8
2023-11-06T07:08:47.551Z,75.7
2023-11-06T07:14:41.075Z,74.8
2023-11-06T07:19:48.067Z,74.4
2023-11-06T07:25:40.667Z,73.6
2023-11-06T07:30:40.867Z,73.4
2023-11-06T07:35:47.572Z,73.3
2023-11-06T07:40:53.025Z,72.9
2023-11-06T07:46:40.677Z,73
2023-11-06T07:51:47.464Z,72.5
2023-11-06T07:56:47.987Z,72.1
2023-11-06T08:02:40.961Z,70.9
2023-11-06T08:07:47.680Z,70
2023-11-06T08:13:40.843Z,69.8
2023-11-06T08:18:40.984Z,68.8
2023-11-06T08:23:47.540Z,67.9
2023-11-06T08:29:40.650Z,68.1
2023-11-06T08:34:40.818Z,67.5
2023-11-06T08:39:47.224Z,67.5
2023-11-06T08:44:47.481Z,66.6
2023-11-06T08:49:53.057Z,66.4
2023-11-06T08:55:40.996Z,66.2
2023-11-06T09:00:47.543Z,66
2023-11-06T09:06:41.646Z,66
2023-11-06T09:11:40.954Z,64.7
2023-11-06T09:21:47.231Z,62.5
2023-11-06T09:26:47.385Z,63.6
2023-11-06T09:32:40.996Z,63.9
2023-11-06T09:37:47.264Z,62.9
2023-11-06T09:42:47.452Z,62.2
2023-11-06T09:47:47.606Z,61.9
2023-11-06T09:52:47.527Z,61.7
2023-11-06T09:57:47.640Z,60.6
2023-11-06T10:03:42.011Z,60.1
2023-11-06T10:08:47.680Z,60.2
2023-11-06T10:14:41.019Z,59.5
2023-11-06T10:19:40.957Z,57.1
2023-11-06T10:24:40.958Z,56.3
2023-11-06T10:29:47.688Z,58
2023-11-06T10:35:40.691Z,58.2
2023-11-06T10:40:40.714Z,58.3
2023-11-06T10:45:40.799Z,56.6
2023-11-06T10:50:47.408Z,57.3
2023-11-06T10:56:40.720Z,57.6
2023-11-06T11:01:40.985Z,58
2023-11-06T11:06:47.527Z,57
2023-11-06T11:12:40.672Z,57.1
2023-11-06T11:17:40.802Z,57.4
2023-11-06T11:22:47.444Z,54.4
2023-11-06T11:27:48.251Z,53.8
2023-11-06T11:33:40.841Z,55.8
2023-11-06T11:38:40.740Z,58.3
2023-11-06T11:43:40.728Z,60
2023-11-06T11:48:40.838Z,61.4
2023-11-06T11:53:47.712Z,62.9
2023-11-06T11:59:40.700Z,65.5
2023-11-06T12:04:47.664Z,69.2
2023-11-06T12:10:40.942Z,71.4
2023-11-06T12:15:47.285Z,71.8
2023-11-06T12:20:47.609Z,70
2023-11-06T12:25:47.533Z,68.6
2023-11-06T12:30:47.610Z,67.1
2023-11-06T12:35:47.790Z,67.1
2023-11-06T12:40:47.846Z,67.5
2023-11-06T12:45:54.102Z,68
2023-11-06T12:51:41.272Z,67.7
2023-11-06T13:01:40.737Z,65.8
2023-11-06T13:06:40.892Z,65.6
2023-11-06T13:11:40.951Z,65.8
2023-11-06T13:16:47.555Z,65.4
2023-11-06T13:22:40.672Z,64.3
2023-11-06T13:27:41.418Z,63.7
2023-11-06T13:32:47.605Z,64.1
2023-11-06T13:38:40.963Z,64.1
2023-11-06T13:43:47.238Z,64.5
2023-11-06T13:48:47.303Z,65.3
2023-11-06T13:53:47.836Z,64.9
2023-11-06T13:59:40.753Z,66.3
2023-11-06T14:04:40.993Z,67.4
2023-11-06T14:09:40.901Z,66.8
2023-11-06T14:14:47.307Z,64.6
2023-11-06T14:19:47.500Z,65.8
2023-11-06T14:25:40.962Z,65
2023-11-06T14:30:41.266Z,64.6
2023-11-06T14:35:47.511Z,64.8
2023-11-06T14:41:40.939Z,64.8
2023-11-06T14:46:47.376Z,64.1
2023-11-06T14:51:47.335Z,64.3
2023-11-06T14:57:40.756Z,63.5
2023-11-06T15:02:40.973Z,63.9
2023-11-06T15:07:40.922Z,64.7
2023-11-06T15:12:47.331Z,63.9
2023-11-06T15:18:41.074Z,65.3
2023-11-06T15:23:41.234Z,65.7
2023-11-06T15:28:47.282Z,66.4
2023-11-06T15:33:47.763Z,67.2
2023-11-06T15:39:40.666Z,67.2
2023-11-06T15:44:47.860Z,67.4
2023-11-06T15:50:40.728Z,67.3
2023-11-06T15:55:40.784Z,67.9
2023-11-06T16:00:40.977Z,69.4
2023-11-06T16:05:41.134Z,70.1
2023-11-06T16:10:47.465Z,69
2023-11-06T16:15:47.682Z,68.7
2023-11-06T16:21:41.056Z,67.9
2023-11-06T16:26:47.633Z,68.4
2023-11-06T16:31:47.603Z,68
2023-11-06T16:37:40.949Z,67.5
2023-11-06T16:42:47.335Z,67.5
2023-11-06T16:47:47.675Z,67.2
2023-11-06T16:52:47.854Z,67.4
2023-11-06T16:58:40.718Z,67.6
2023-11-06T17:03:47.635Z,67.4
2023-11-06T17:08:47.530Z,68.4
2023-11-06T17:13:47.953Z,67.6
2023-11-06T17:19:40.703Z,67.7
2023-11-06T17:24:47.510Z,68.6
2023-11-06T17:29:47.584Z,69.1
2023-11-06T17:35:40.821Z,69.7
2023-11-06T17:40:47.458Z,69.4
2023-11-06T17:45:47.500Z,69
2023-11-06T17:50:47.756Z,69.4
2023-11-06T17:56:40.771Z,70.9
2023-11-06T18:01:40.824Z,70.8
2023-11-06T18:06:40.916Z,71.4
2023-11-06T18:11:47.552Z,73
2023-11-06T18:16:47.537Z,75.3
2023-11-06T18:22:40.925Z,75.4
2023-11-06T18:27:47.501Z,75.7
2023-11-06T18:32:47.970Z,76.2
2023-11-06T18:38:40.735Z,76.9
2023-11-06T18:43:40.994Z,77.3
2023-11-06T18:48:47.587Z,76.3
2023-11-06T18:54:40.767Z,76.9
2023-11-06T18:59:40.939Z,76.9
2023-11-06T19:04:47.616Z,76.9
2023-11-06T19:09:47.568Z,77.8
2023-11-06T19:15:40.839Z,78.4
2023-11-06T19:20:41.057Z,77.6
2023-11-06T19:25:47.582Z,78.1
2023-11-06T19:31:40.907Z,77.8
2023-11-06T19:41:48.561Z,77
2023-11-06T19:46:47.599Z,77.4
2023-11-06T19:52:40.784Z,77
2023-11-06T19:57:40.905Z,77.4
2023-11-06T20:02:41.049Z,77.4
2023-11-06T20:07:47.514Z,77.5
2023-11-06T20:13:40.878Z,77
2023-11-06T20:18:41.183Z,77.6
2023-11-06T20:23:41.636Z,77.9
2023-11-06T20:28:47.501Z,77.9
2023-11-06T20:34:41.081Z,77.9
2023-11-06T20:39:47.512Z,78.3
2023-11-06T20:44:53.126Z,77.6
2023-11-06T20:49:55.827Z,77.6
2023-11-06T20:55:40.917Z,76.8
2023-11-06T21:00:47.303Z,76.9
2023-11-06T21:06:40.964Z,76.9
2023-11-06T21:11:41.013Z,77.3
2023-11-06T21:16:42.390Z,77.3
2023-11-06T21:21:47.350Z,77.8
2023-11-06T21:27:40.726Z,77.8
2023-11-06T21:32:41.224Z,77.4
2023-11-06T21:37:47.306Z,76.8
2023-11-06T21:43:40.981Z,76.5
2023-11-06T21:48:41.061Z,76.8
2023-11-06T21:53:40.973Z,76.4
2023-11-06T21:58:47.398Z,77.7
2023-11-06T22:03:47.465Z,76.2
2023-11-06T22:09:40.921Z,76
2023-11-06T22:14:40.948Z,76.2
2023-11-06T22:19:47.484Z,76.3
2023-11-06T22:25:40.676Z,75.4
2023-11-06T22:30:41.058Z,75.9
2023-11-06T22:35:47.564Z,75.7
2023-11-06T22:41:41.047Z,75.5
2023-11-06T22:46:47.515Z,75.6
2023-11-06T22:51:47.531Z,75.4
2023-11-06T22:57:40.722Z,75.2
2023-11-06T23:02:40.777Z,75.4
2023-11-06T23:07:40.715Z,75
2023-11-06T23:12:40.876Z,75.3
2023-11-06T23:17:47.408Z,74.9
2023-11-06T23:22:47.503Z,75
2023-11-06T23:28:40.693Z,75.3
2023-11-06T23:33:40.886Z,75.2
2023-11-06T23:38:47.572Z,75.5
2023-11-06T23:43:47.639Z,75.5
2023-11-06T23:49:40.716Z,75.3
2023-11-06T23:58:40.755Z,75.6
